createdAt,value
2022-12-10T00:01:43.867Z,11.90
2022-12-10T00:04:13.103Z,12.47
2022-12-10T00:06:42.390Z,12.23
2022-12-10T00:09:15.447Z,12.23
2022-12-10T00:11:43.505Z,11.77
2022-12-10T00:14:13.997Z,12.40
2022-12-10T00:16:41.982Z,12.93
2022-12-10T00:19:09.474Z,12.33
2022-12-10T00:21:37.764Z,13.17
2022-12-10T00:24:06.152Z,12.47
2022-12-10T00:26:37.909Z,13.33
2022-12-10T00:29:08.603Z,14.17
2022-12-10T00:31:38.507Z,13.13
2022-12-10T00:34:10.243Z,13.70
2022-12-10T00:36:49.040Z,11.93
2022-12-10T00:39:21.415Z,11.47
2022-12-10T00:41:48.922Z,13.10
2022-12-10T00:44:16.883Z,11.00
2022-12-10T00:46:44.184Z,13.57
2022-12-10T00:49:12.362Z,13.33
2022-12-10T00:51:39.812Z,13.33
2022-12-10T00:54:08.307Z,12.60
2022-12-10T00:56:35.614Z,12.87
2022-12-10T00:59:03.883Z,12.67
2022-12-10T01:01:42.279Z,12.70
2022-12-10T01:04:19.453Z,12.50
2022-12-10T01:06:55.082Z,12.77
2022-12-10T01:09:26.598Z,12.87
2022-12-10T01:11:56.457Z,12.77
2022-12-10T01:14:32.105Z,12.93
2022-12-10T01:17:05.850Z,12.33
2022-12-10T01:19:34.735Z,13.57
2022-12-10T01:22:02.196Z,13.07
2022-12-10T01:24:30.519Z,12.33
2022-12-10T01:26:58.525Z,13.07
2022-12-10T01:29:26.227Z,12.97
2022-12-10T01:31:57.161Z,12.53
2022-12-10T01:34:27.815Z,13.20
2022-12-10T01:36:55.594Z,12.77
2022-12-10T01:39:24.073Z,13.70
2022-12-10T01:41:58.761Z,13.47
2022-12-10T01:44:25.612Z,14.30
2022-12-10T01:47:00.072Z,13.03
2022-12-10T01:49:40.854Z,13.53
2022-12-10T01:52:12.035Z,14.03
2022-12-10T01:54:46.126Z,13.00
2022-12-10T01:57:21.550Z,13.50
2022-12-10T01:59:55.309Z,13.47
2022-12-10T02:02:59.827Z,13.27
2022-12-10T02:05:52.421Z,13.10
2022-12-10T02:08:45.287Z,12.83
2022-12-10T02:11:29.208Z,12.50
2022-12-10T02:15:04.037Z,13.23
2022-12-10T02:17:40.232Z,14.07
2022-12-10T02:20:20.402Z,13.27
2022-12-10T02:23:03.067Z,15.40
2022-12-10T02:25:55.295Z,13.97
2022-12-10T02:29:25.655Z,14.07
2022-12-10T02:32:15.594Z,13.73
2022-12-10T02:34:55.417Z,13.80
2022-12-10T02:37:35.716Z,14.67
2022-12-10T02:40:16.571Z,14.90
2022-12-10T02:42:47.659Z,14.50
2022-12-10T02:45:15.093Z,14.57
2022-12-10T02:47:42.715Z,13.83
2022-12-10T02:50:13.762Z,14.43
2022-12-10T02:52:40.695Z,16.10
2022-12-10T02:55:12.765Z,14.37
2022-12-10T02:58:30.139Z,16.17
2022-12-10T03:01:28.593Z,14.33
2022-12-10T03:04:10.967Z,15.33
2022-12-10T03:06:58.842Z,15.53
2022-12-10T03:09:56.207Z,15.43
2022-12-10T03:12:59.915Z,15.37
2022-12-10T03:15:31.116Z,15.00
2022-12-10T03:18:00.460Z,14.90
2022-12-10T03:20:27.890Z,15.20
2022-12-10T03:22:55.858Z,16.80
2022-12-10T03:25:29.401Z,14.83
2022-12-10T03:27:59.690Z,15.10
2022-12-10T03:30:27.342Z,14.50
2022-12-10T03:32:54.805Z,15.83
2022-12-10T03:35:24.976Z,14.67
2022-12-10T03:37:52.421Z,14.37
2022-12-10T03:40:25.453Z,14.63
2022-12-10T03:42:52.710Z,14.57
2022-12-10T03:45:19.969Z,15.90
2022-12-10T03:47:47.156Z,14.43
2022-12-10T03:50:14.235Z,15.70
2022-12-10T03:52:41.206Z,16.33
2022-12-10T03:55:10.148Z,14.37
2022-12-10T03:57:37.220Z,15.50
2022-12-10T04:00:07.484Z,14.67
2022-12-10T04:02:34.741Z,14.90
2022-12-10T04:05:01.896Z,14.20
2022-12-10T04:07:28.914Z,15.33
2022-12-10T04:09:55.927Z,14.20
2022-12-10T04:12:22.920Z,14.20
2022-12-10T04:15:08.590Z,14.00
2022-12-10T04:17:35.750Z,14.70
2022-12-10T04:20:03.005Z,13.20
2022-12-10T04:22:48.829Z,12.70
2022-12-10T04:25:34.147Z,12.93
2022-12-10T04:28:01.081Z,12.43
2022-12-10T04:30:28.048Z,13.70
2022-12-10T04:32:55.026Z,13.10
2022-12-10T04:35:22.003Z,13.77
2022-12-10T04:37:49.002Z,11.93
2022-12-10T04:40:16.052Z,12.77
2022-12-10T04:42:43.079Z,12.87
2022-12-10T04:45:10.847Z,12.53
2022-12-10T04:47:37.858Z,12.13
2022-12-10T04:50:05.744Z,13.57
2022-12-10T04:52:32.745Z,13.23
2022-12-10T04:55:00.030Z,13.00
2022-12-10T04:57:27.012Z,13.17
2022-12-10T04:59:54.028Z,13.13
2022-12-10T05:02:21.078Z,12.30
2022-12-10T05:04:50.496Z,12.00
2022-12-10T05:07:17.560Z,12.43
2022-12-10T05:09:44.590Z,10.87
2022-12-10T05:12:11.565Z,11.70
2022-12-10T05:14:38.722Z,12.30
2022-12-10T05:17:05.829Z,11.10
2022-12-10T05:19:32.849Z,11.97
2022-12-10T05:22:18.428Z,10.83
2022-12-10T05:24:45.404Z,10.53
2022-12-10T05:27:12.409Z,10.33
2022-12-10T05:29:39.377Z,9.97
2022-12-10T05:32:06.835Z,9.90
2022-12-10T05:34:33.920Z,10.97
2022-12-10T05:37:00.929Z,9.90
2022-12-10T05:39:27.932Z,10.13
2022-12-10T05:41:54.927Z,10.33
2022-12-10T05:44:22.053Z,11.03
2022-12-10T05:46:49.491Z,10.07
2022-12-10T05:49:16.509Z,10.67
2022-12-10T05:51:43.470Z,9.97
2022-12-10T05:54:11.060Z,10.10
2022-12-10T05:56:38.735Z,10.97
2022-12-10T05:59:08.855Z,10.43
2022-12-10T06:01:40.006Z,10.17
2022-12-10T06:04:07.378Z,9.80
2022-12-10T06:06:38.714Z,9.10
2022-12-10T06:09:10.510Z,10.40
2022-12-10T06:11:37.500Z,10.27
2022-12-10T06:14:04.598Z,9.30
2022-12-10T06:16:31.733Z,9.17
2022-12-10T06:18:59.414Z,9.30
2022-12-10T06:21:26.843Z,9.30
2022-12-10T06:23:54.237Z,9.70
2022-12-10T06:26:26.293Z,8.80
2022-12-10T06:28:54.497Z,9.50
2022-12-10T06:31:22.620Z,8.93
2022-12-10T06:33:49.701Z,9.70
2022-12-10T06:36:18.310Z,9.53
2022-12-10T06:38:45.910Z,9.20
2022-12-10T06:41:15.757Z,10.13
2022-12-10T06:43:43.141Z,9.73
2022-12-10T06:46:15.056Z,10.10
2022-12-10T06:48:43.074Z,9.00
2022-12-10T06:51:12.574Z,9.13
2022-12-10T06:53:41.834Z,8.67
2022-12-10T06:56:13.952Z,8.53
2022-12-10T06:58:44.791Z,9.43
2022-12-10T07:01:22.926Z,9.37
2022-12-10T07:03:53.125Z,9.47
2022-12-10T07:06:21.002Z,9.60
2022-12-10T07:08:49.179Z,9.47
2022-12-10T07:11:21.467Z,9.63
2022-12-10T07:13:48.706Z,9.30
2022-12-10T07:16:23.267Z,9.07
2022-12-10T07:18:52.776Z,8.90
2022-12-10T07:21:23.901Z,10.00
2022-12-10T07:23:54.772Z,9.30
2022-12-10T07:26:23.175Z,9.50
2022-12-10T07:28:53.641Z,9.03
2022-12-10T07:31:23.018Z,9.73
2022-12-10T07:33:52.660Z,8.40
2022-12-10T07:36:23.361Z,8.90
2022-12-10T07:38:54.310Z,8.57
2022-12-10T07:41:23.334Z,9.73
2022-12-10T07:43:54.012Z,9.20
2022-12-10T07:46:29.379Z,8.70
2022-12-10T07:48:56.521Z,8.73
2022-12-10T07:51:24.189Z,9.77
2022-12-10T07:53:55.700Z,10.43
2022-12-10T07:56:25.298Z,8.97
2022-12-10T07:58:53.468Z,9.27
2022-12-10T08:01:27.542Z,9.00
2022-12-10T08:03:59.800Z,9.40
2022-12-10T08:06:30.043Z,9.17
2022-12-10T08:08:59.743Z,9.10
2022-12-10T08:11:27.945Z,9.10
2022-12-10T08:13:57.528Z,9.17
2022-12-10T08:16:30.252Z,9.70
2022-12-10T08:19:00.586Z,9.23
2022-12-10T08:21:33.544Z,8.83
2022-12-10T08:24:03.775Z,9.47
2022-12-10T08:26:34.213Z,8.60
2022-12-10T08:29:02.047Z,9.83
2022-12-10T08:31:35.717Z,10.13
2022-12-10T08:34:05.867Z,9.67
2022-12-10T08:36:32.934Z,10.50
2022-12-10T08:39:00.558Z,11.20
2022-12-10T08:44:13.661Z,9.87
2022-12-10T08:46:41.269Z,11.20
2022-12-10T08:49:08.499Z,10.50
2022-12-10T08:51:36.368Z,10.37
2022-12-10T08:54:06.449Z,10.63
2022-12-10T08:56:33.752Z,10.27
2022-12-10T08:59:01.017Z,10.83
2022-12-10T09:01:29.380Z,9.90
2022-12-10T09:03:56.475Z,11.13
2022-12-10T09:06:25.316Z,10.53
2022-12-10T09:08:53.227Z,10.23
2022-12-10T09:11:30.891Z,10.60
2022-12-10T09:13:59.163Z,10.73
2022-12-10T09:16:36.808Z,11.30
2022-12-10T09:19:05.254Z,10.20
2022-12-10T09:21:32.875Z,10.60
2022-12-10T09:24:00.487Z,12.90
2022-12-10T09:26:27.987Z,11.63
2022-12-10T09:28:55.664Z,12.50
2022-12-10T09:31:22.853Z,11.20
2022-12-10T09:33:53.276Z,15.60
2022-12-10T09:36:22.219Z,13.80
2022-12-10T09:38:50.985Z,19.53
2022-12-10T09:42:22.442Z,12.63
2022-12-10T09:45:07.398Z,12.60
2022-12-10T09:48:04.975Z,11.03
2022-12-10T09:51:05.593Z,11.10
2022-12-10T09:53:33.501Z,11.50
2022-12-10T09:56:01.145Z,13.93
2022-12-10T09:58:30.292Z,11.73
2022-12-10T10:01:06.126Z,13.73
2022-12-10T10:03:41.314Z,12.73
2022-12-10T10:06:15.578Z,12.37
2022-12-10T10:08:58.477Z,11.53
2022-12-10T10:11:34.488Z,11.43
2022-12-10T10:14:13.261Z,12.33
2022-12-10T10:17:22.617Z,12.50
2022-12-10T10:19:50.450Z,12.37
2022-12-10T10:22:17.611Z,14.43
2022-12-10T10:24:47.536Z,14.20
2022-12-10T10:27:23.260Z,14.13
2022-12-10T10:29:57.873Z,11.57
2022-12-10T10:32:37.062Z,11.07
2022-12-10T10:35:06.499Z,11.53
2022-12-10T10:37:36.411Z,11.83
2022-12-10T10:40:04.045Z,10.97
2022-12-10T10:42:44.463Z,11.67
2022-12-10T10:45:33.673Z,11.53
2022-12-10T10:48:18.039Z,10.57
2022-12-10T10:51:06.706Z,11.73
2022-12-10T10:53:39.718Z,11.13
2022-12-10T10:56:18.289Z,11.07
2022-12-10T10:58:58.356Z,11.17
2022-12-10T11:01:44.593Z,10.80
2022-12-10T11:04:11.895Z,11.20
2022-12-10T11:06:40.692Z,11.10
2022-12-10T11:09:08.132Z,11.60
2022-12-10T11:11:44.283Z,11.07
2022-12-10T11:14:44.450Z,11.20
2022-12-10T11:17:11.272Z,10.33
2022-12-10T11:20:37.443Z,11.47
2022-12-10T11:23:14.508Z,10.90
2022-12-10T11:26:06.097Z,11.43
2022-12-10T11:29:12.844Z,11.17
2022-12-10T11:32:03.884Z,11.80
2022-12-10T11:35:10.377Z,11.63
2022-12-10T11:37:50.682Z,11.60
2022-12-10T11:40:50.813Z,12.23
2022-12-10T11:43:48.286Z,11.77
2022-12-10T11:46:49.969Z,11.93
2022-12-10T11:50:10.942Z,11.37
2022-12-10T11:53:17.080Z,10.50
2022-12-10T11:56:27.116Z,10.73
2022-12-10T11:59:52.868Z,10.90
2022-12-10T12:02:59.099Z,11.70
2022-12-10T12:05:53.133Z,11.10
2022-12-10T12:09:00.250Z,9.90
2022-12-10T12:11:56.731Z,10.57
2022-12-10T12:14:56.192Z,12.40
2022-12-10T12:17:38.458Z,10.67
2022-12-10T12:20:40.645Z,11.80
2022-12-10T12:23:30.577Z,10.67
2022-12-10T12:26:09.248Z,9.90
2022-12-10T12:28:51.629Z,11.10
2022-12-10T12:32:01.472Z,10.27
2022-12-10T12:35:01.048Z,10.60
2022-12-10T12:37:47.114Z,10.63
2022-12-10T12:40:22.126Z,13.13
2022-12-10T12:43:13.953Z,11.33
2022-12-10T12:45:49.350Z,14.13
2022-12-10T12:48:54.438Z,11.03
2022-12-10T12:51:39.907Z,11.93
2022-12-10T12:54:12.859Z,10.43
2022-12-10T12:57:15.587Z,10.87
2022-12-10T13:00:19.314Z,11.40
2022-12-10T13:03:37.276Z,10.57
2022-12-10T13:06:30.634Z,10.53
2022-12-10T13:09:12.502Z,12.40
2022-12-10T13:12:07.148Z,13.77
2022-12-10T13:15:01.115Z,12.73
2022-12-10T13:17:39.240Z,13.57
2022-12-10T13:20:28.202Z,12.07
2022-12-10T13:23:00.952Z,11.70
2022-12-10T13:25:54.615Z,12.43
2022-12-10T13:28:52.323Z,11.77
2022-12-10T13:31:39.601Z,12.43
2022-12-10T13:34:33.439Z,15.53
2022-12-10T13:37:07.584Z,15.43
2022-12-10T13:40:00.546Z,13.27
2022-12-10T13:42:56.990Z,14.40
2022-12-10T13:45:25.830Z,18.03
2022-12-10T13:48:26.191Z,15.03
2022-12-10T13:51:47.541Z,13.50
2022-12-10T13:55:07.570Z,12.80
2022-12-10T13:58:35.461Z,18.07
2022-12-10T14:01:39.032Z,22.70
2022-12-10T14:04:48.524Z,20.77
2022-12-10T14:07:17.643Z,13.80
2022-12-10T14:09:58.586Z,15.03
2022-12-10T14:12:40.559Z,13.47
2022-12-10T14:15:24.254Z,13.70
2022-12-10T14:18:16.758Z,14.17
2022-12-10T14:20:53.281Z,14.70
2022-12-10T14:23:34.910Z,13.97
2022-12-10T14:26:33.268Z,13.90
2022-12-10T14:29:24.259Z,13.67
2022-12-10T14:31:56.394Z,15.13
2022-12-10T14:34:29.444Z,15.77
2022-12-10T14:37:02.952Z,15.13
2022-12-10T14:39:34.640Z,15.00
2022-12-10T14:42:06.390Z,15.47
2022-12-10T14:44:40.079Z,13.87
2022-12-10T14:47:21.516Z,13.17
2022-12-10T14:49:54.336Z,13.50
2022-12-10T14:52:36.197Z,12.87
2022-12-10T14:55:04.012Z,13.53
2022-12-10T14:57:43.373Z,13.63
2022-12-10T15:00:23.360Z,13.17
2022-12-10T15:02:54.465Z,14.23
2022-12-10T15:05:34.904Z,12.47
2022-12-10T15:08:24.445Z,12.17
2022-12-10T15:11:01.582Z,12.70
2022-12-10T15:13:45.565Z,14.90
2022-12-10T15:16:42.409Z,11.73
2022-12-10T15:19:34.283Z,13.47
2022-12-10T15:22:23.002Z,14.17
2022-12-10T15:24:50.190Z,12.83
2022-12-10T15:27:25.747Z,16.10
2022-12-10T15:29:53.551Z,15.93
2022-12-10T15:32:29.739Z,13.30
2022-12-10T15:35:08.083Z,14.27
2022-12-10T15:37:41.505Z,13.93
2022-12-10T15:40:30.583Z,15.43
2022-12-10T15:43:30.191Z,16.17
2022-12-10T15:46:00.724Z,16.13
2022-12-10T15:48:31.085Z,15.87
2022-12-10T15:50:58.849Z,14.73
2022-12-10T15:53:38.293Z,15.30
2022-12-10T15:56:05.953Z,16.40
2022-12-10T15:58:33.226Z,17.07
2022-12-10T16:01:02.289Z,19.20
2022-12-10T16:03:30.260Z,22.93
2022-12-10T16:05:57.299Z,18.53
2022-12-10T16:08:29.524Z,20.23
2022-12-10T16:11:01.797Z,24.40
2022-12-10T16:13:37.979Z,22.23
2022-12-10T16:16:13.730Z,19.50
2022-12-10T16:18:40.972Z,15.93
2022-12-10T16:21:09.072Z,16.47
2022-12-10T16:23:36.853Z,15.57
2022-12-10T16:26:19.610Z,17.13
2022-12-10T16:28:48.850Z,15.70
2022-12-10T16:31:20.964Z,14.40
2022-12-10T16:33:49.696Z,14.83
2022-12-10T16:36:16.897Z,14.60
2022-12-10T16:38:44.068Z,15.00
2022-12-10T16:41:33.128Z,14.87
2022-12-10T16:44:00.503Z,15.17
2022-12-10T16:46:27.563Z,16.07
2022-12-10T16:48:54.604Z,16.17
2022-12-10T16:51:33.321Z,16.27
2022-12-10T16:54:00.354Z,17.23
2022-12-10T16:56:27.467Z,17.47
2022-12-10T16:58:54.462Z,18.07
2022-12-10T17:01:30.012Z,17.13
2022-12-10T17:03:58.102Z,17.47
2022-12-10T17:06:25.768Z,18.43
2022-12-10T17:08:52.917Z,18.67
2022-12-10T17:11:51.270Z,16.67
2022-12-10T17:14:36.887Z,19.43
2022-12-10T17:17:05.632Z,17.47
2022-12-10T17:19:42.485Z,17.83
2022-12-10T17:22:10.705Z,18.93
2022-12-10T17:24:38.121Z,19.20
2022-12-10T17:27:18.369Z,20.07
2022-12-10T17:29:53.605Z,17.47
2022-12-10T17:32:23.158Z,20.30
2022-12-10T17:34:50.477Z,18.70
2022-12-10T17:37:20.190Z,19.43
2022-12-10T17:39:47.638Z,18.77
2022-12-10T17:42:15.102Z,17.03
2022-12-10T17:44:42.084Z,18.50
2022-12-10T17:47:25.588Z,16.47
2022-12-10T17:49:53.065Z,17.57
2022-12-10T17:52:20.059Z,26.07
2022-12-10T17:54:47.032Z,47.83
2022-12-10T17:57:26.604Z,36.17
2022-12-10T17:59:53.593Z,64.93
2022-12-10T18:02:20.656Z,40.30
2022-12-10T18:04:47.700Z,29.67
2022-12-10T18:07:18.958Z,20.73
2022-12-10T18:09:46.325Z,18.73
2022-12-10T18:12:13.818Z,18.77
2022-12-10T18:14:41.582Z,19.63
2022-12-10T18:17:14.564Z,18.50
2022-12-10T18:19:43.808Z,20.23
2022-12-10T18:22:12.595Z,20.83
2022-12-10T18:24:39.661Z,18.83
2022-12-10T18:27:07.010Z,19.50
2022-12-10T18:29:33.989Z,18.23
2022-12-10T18:32:01.241Z,19.30
2022-12-10T18:34:28.279Z,19.70
2022-12-10T18:36:55.334Z,17.90
2022-12-10T18:39:26.673Z,18.13
2022-12-10T18:41:54.702Z,16.40
2022-12-10T18:44:26.439Z,15.07
2022-12-10T18:46:57.031Z,15.67
2022-12-10T18:49:25.266Z,16.13
2022-12-10T18:51:52.600Z,16.37
2022-12-10T18:54:21.121Z,17.30
2022-12-10T18:57:03.575Z,17.93
2022-12-10T18:59:35.150Z,19.57
2022-12-10T19:02:02.469Z,20.87
2022-12-10T19:04:29.501Z,15.73
2022-12-10T19:06:56.484Z,17.13
2022-12-10T19:09:23.804Z,15.37
2022-12-10T19:11:52.184Z,17.00
2022-12-10T19:14:20.897Z,15.00
2022-12-10T19:16:48.254Z,18.13
2022-12-10T19:19:18.596Z,15.57
2022-12-10T19:21:47.091Z,16.10
2022-12-10T19:24:14.491Z,16.30
2022-12-10T19:26:43.719Z,15.63
2022-12-10T19:29:19.942Z,15.87
2022-12-10T19:31:47.827Z,14.80
2022-12-10T19:34:18.079Z,14.07
2022-12-10T19:36:46.084Z,14.30
2022-12-10T19:39:25.296Z,17.57
2022-12-10T19:41:55.207Z,14.87
2022-12-10T19:44:22.480Z,18.67
2022-12-10T19:46:50.884Z,15.40
2022-12-10T19:49:19.458Z,15.83
2022-12-10T19:51:47.686Z,16.30
2022-12-10T19:54:15.296Z,16.07
2022-12-10T19:56:43.333Z,15.67
2022-12-10T19:59:18.754Z,15.10
2022-12-10T20:01:46.849Z,14.13
2022-12-10T20:04:16.834Z,15.47
2022-12-10T20:06:48.466Z,14.80
2022-12-10T20:09:23.580Z,15.33
2022-12-10T20:11:51.635Z,14.83
2022-12-10T20:14:19.866Z,15.13
2022-12-10T20:16:50.948Z,11.90
2022-12-10T20:19:21.857Z,14.40
2022-12-10T20:21:49.061Z,13.17
2022-12-10T20:24:16.327Z,14.27
2022-12-10T20:26:48.519Z,13.03
2022-12-10T20:29:24.972Z,14.00
2022-12-10T20:31:57.157Z,15.97
2022-12-10T20:34:25.554Z,14.33
2022-12-10T20:36:53.286Z,15.23
2022-12-10T20:39:29.748Z,14.80
2022-12-10T20:41:58.081Z,11.73
2022-12-10T20:44:27.510Z,13.80
2022-12-10T20:46:55.635Z,13.00
2022-12-10T20:49:25.569Z,12.87
2022-12-10T20:51:53.470Z,12.70
2022-12-10T20:54:20.535Z,12.20
2022-12-10T20:56:47.600Z,11.73
2022-12-10T20:59:16.828Z,7.83
2022-12-10T21:01:44.346Z,8.43
2022-12-10T21:04:12.575Z,7.73
2022-12-10T21:06:43.101Z,7.00
2022-12-10T21:09:12.897Z,7.77
2022-12-10T21:11:39.936Z,7.80
2022-12-10T21:14:13.867Z,7.13
2022-12-10T21:16:50.993Z,8.27
2022-12-10T21:19:20.050Z,8.27
2022-12-10T21:21:47.073Z,9.37
2022-12-10T21:24:14.042Z,10.20
2022-12-10T21:26:41.028Z,10.90
2022-12-10T21:29:08.924Z,11.57
2022-12-10T21:31:36.265Z,11.90
2022-12-10T21:34:03.584Z,11.30
2022-12-10T21:36:34.609Z,10.83
2022-12-10T21:39:02.949Z,13.40
2022-12-10T21:41:48.867Z,12.90
2022-12-10T21:44:16.750Z,11.43
2022-12-10T21:46:43.858Z,12.70
2022-12-10T21:49:11.609Z,11.77
2022-12-10T21:51:40.466Z,13.40
2022-12-10T21:54:09.264Z,12.63
2022-12-10T21:56:37.110Z,13.73
2022-12-10T21:59:04.763Z,14.90
2022-12-10T22:01:32.240Z,13.97
2022-12-10T22:03:59.300Z,14.47
2022-12-10T22:06:28.812Z,14.90
2022-12-10T22:08:56.570Z,13.30
2022-12-10T22:11:23.552Z,13.13
2022-12-10T22:13:56.199Z,13.17
2022-12-10T22:16:23.617Z,13.10
2022-12-10T22:18:50.926Z,13.30
2022-12-10T22:21:23.389Z,12.37
2022-12-10T22:23:55.360Z,11.03
2022-12-10T22:26:23.054Z,14.07
2022-12-10T22:28:50.604Z,12.77
2022-12-10T22:31:19.854Z,13.33
2022-12-10T22:33:47.150Z,14.07
2022-12-10T22:36:15.652Z,13.83
2022-12-10T22:38:43.708Z,10.33
2022-12-10T22:41:10.735Z,11.07
2022-12-10T22:43:53.258Z,10.07
2022-12-10T22:46:21.742Z,11.27
2022-12-10T22:48:48.884Z,12.20
2022-12-10T22:51:16.115Z,12.13
2022-12-10T22:53:43.090Z,11.93
2022-12-10T22:56:13.499Z,12.83
2022-12-10T22:58:41.280Z,13.77
2022-12-10T23:01:19.709Z,11.60
2022-12-10T23:03:49.424Z,12.83
2022-12-10T23:06:17.859Z,13.30
2022-12-10T23:08:45.096Z,12.87
2022-12-10T23:11:14.858Z,14.07
2022-12-10T23:13:43.070Z,13.83
2022-12-10T23:16:17.985Z,12.67
2022-12-10T23:18:50.619Z,12.03
2022-12-10T23:21:24.179Z,12.03
2022-12-10T23:23:51.887Z,11.43
2022-12-10T23:26:20.303Z,13.00
2022-12-10T23:28:48.402Z,13.37
2022-12-10T23:31:16.950Z,13.67
2022-12-10T23:33:44.204Z,13.07
2022-12-10T23:36:12.008Z,14.27
2022-12-10T23:38:39.660Z,13.53
2022-12-10T23:41:12.024Z,13.23
2022-12-10T23:43:39.774Z,11.50
2022-12-10T23:46:08.597Z,12.00
2022-12-10T23:48:36.232Z,14.07
2022-12-10T23:51:03.783Z,11.80
2022-12-10T23:53:31.662Z,11.83
2022-12-10T23:55:59.139Z,12.20
2022-12-10T23:58:26.411Z,12.00
